createdAt,value
2023-05-09T00:03:59.704Z,100491.63
2023-05-09T00:09:01.009Z,100476.53
2023-05-09T00:14:03.118Z,100470.94
2023-05-09T00:19:04.505Z,100470.63
2023-05-09T00:24:05.726Z,100459.69
2023-05-09T00:29:06.925Z,100449.91
2023-05-09T00:34:08.127Z,100445.88
2023-05-09T00:39:09.681Z,100432.34
2023-05-09T00:44:10.889Z,100432.47
2023-05-09T00:49:12.459Z,100443.47
2023-05-09T00:54:13.758Z,100431.38
2023-05-09T00:59:17.395Z,100422.53
2023-05-09T01:04:18.722Z,100415.38
2023-05-09T01:09:19.912Z,100407.94
2023-05-09T01:14:21.158Z,100411.81
2023-05-09T01:19:22.368Z,100408.72
2023-05-09T01:24:23.555Z,100408.72
2023-05-09T01:29:24.721Z,100400.16
2023-05-09T01:34:25.941Z,100397.22
2023-05-09T01:39:27.144Z,100391.16
2023-05-09T01:44:28.395Z,100385.56
2023-05-09T01:49:29.616Z,100391.63
2023-05-09T01:54:30.873Z,100391.78
2023-05-09T01:59:32.017Z,100393.03
2023-05-09T02:04:33.229Z,100389.28
2023-05-09T02:09:34.456Z,100400.31
2023-05-09T02:14:35.722Z,100398.78
2023-05-09T02:19:36.942Z,100391.47
2023-05-09T02:24:38.151Z,100390.69
2023-05-09T02:29:42.646Z,100388.81
2023-05-09T02:34:43.876Z,100374.03
2023-05-09T02:39:45.169Z,100383.53
2023-05-09T02:44:46.438Z,100373.72
2023-05-09T02:49:47.902Z,100371.06
2023-05-09T02:54:49.120Z,100363.94
2023-05-09T02:59:50.316Z,100362.38
2023-05-09T03:04:51.532Z,100357.09
2023-05-09T03:09:52.949Z,100352.56
2023-05-09T03:14:54.169Z,100343.56
2023-05-09T03:19:55.417Z,100342.00
2023-05-09T03:24:56.558Z,100345.09
2023-05-09T03:29:57.812Z,100345.09
2023-05-09T03:34:59.097Z,100341.06
2023-05-09T03:40:00.290Z,100343.72
2023-05-09T03:45:01.478Z,100339.66
2023-05-09T03:50:02.693Z,100333.59
2023-05-09T03:55:03.866Z,100315.41
2023-05-09T04:00:06.523Z,100322.56
2023-05-09T04:05:07.801Z,100309.03
2023-05-09T04:10:09.029Z,100293.97
2023-05-09T04:15:10.978Z,100305.13
2023-05-09T04:20:12.535Z,100303.59
2023-05-09T04:25:14.741Z,100297.19
2023-05-09T04:30:16.243Z,100288.50
2023-05-09T04:35:19.682Z,100286.63
2023-05-09T04:40:21.893Z,100281.03
2023-05-09T04:45:23.115Z,100280.25
2023-05-09T04:50:24.712Z,100278.06
2023-05-09T04:55:26.213Z,100270.28
2023-05-09T05:00:27.457Z,100273.06
2023-05-09T05:05:28.910Z,100264.81
2023-05-09T05:10:30.529Z,100269.03
2023-05-09T05:15:31.747Z,100270.25
2023-05-09T05:20:32.974Z,100266.19
2023-05-09T05:25:34.333Z,100257.44
2023-05-09T05:30:35.521Z,100253.34
2023-05-09T05:35:36.685Z,100245.94
2023-05-09T05:40:37.944Z,100242.47
2023-05-09T05:45:39.136Z,100242.88
2023-05-09T05:50:40.337Z,100240.94
2023-05-09T05:55:41.497Z,100226.78
2023-05-09T06:00:42.628Z,100233.19
2023-05-09T06:05:44.168Z,100223.44
2023-05-09T06:10:45.409Z,100222.31
2023-05-09T06:15:46.653Z,100221.47
2023-05-09T06:20:47.827Z,100213.09
2023-05-09T06:25:49.270Z,100206.69
2023-05-09T06:30:50.531Z,100201.72
2023-05-09T06:35:51.687Z,100200.28
2023-05-09T06:40:52.897Z,100203.56
2023-05-09T06:45:54.121Z,100189.84
2023-05-09T06:50:55.398Z,100187.09
2023-05-09T06:55:56.611Z,100186.97
2023-05-09T07:00:57.941Z,100171.22
2023-05-09T07:05:59.838Z,100177.91
2023-05-09T07:11:01.078Z,100171.19
2023-05-09T07:16:02.491Z,100157.97
2023-05-09T07:21:03.741Z,100158.31
2023-05-09T07:26:05.021Z,100141.56
2023-05-09T07:31:06.368Z,100136.66
2023-05-09T07:36:07.601Z,100127.81
2023-05-09T07:41:08.814Z,100126.28
2023-05-09T07:46:10.052Z,100118.56
2023-05-09T07:51:11.257Z,100117.84
2023-05-09T07:56:13.402Z,100111.28
2023-05-09T08:01:14.562Z,100117.91
2023-05-09T08:06:15.844Z,100102.97
2023-05-09T08:11:17.009Z,100097.56
2023-05-09T08:16:18.286Z,100082.84
2023-05-09T08:21:22.088Z,100083.06
2023-05-09T08:26:23.652Z,100063.88
2023-05-09T08:31:26.927Z,100059.84
2023-05-09T08:36:28.102Z,100061.13
2023-05-09T08:41:29.404Z,100052.16
2023-05-09T08:46:30.793Z,100047.34
2023-05-09T08:51:32.242Z,100052.50
2023-05-09T08:56:33.459Z,100038.22
2023-05-09T09:01:37.432Z,100030.06
2023-05-09T09:06:38.973Z,100029.97
2023-05-09T09:11:40.393Z,100024.25
2023-05-09T09:16:41.774Z,100015.03
2023-05-09T09:21:43.629Z,100000.78
2023-05-09T09:26:44.786Z,99996.06
2023-05-09T09:31:46.127Z,99990.16
2023-05-09T09:36:48.469Z,99989.47
2023-05-09T09:41:49.786Z,99983.44
2023-05-09T09:46:51.214Z,99983.03
2023-05-09T09:51:52.414Z,99977.28
2023-05-09T09:56:54.603Z,99971.13
2023-05-09T10:01:55.967Z,99963.31
2023-05-09T10:06:57.287Z,99955.66
2023-05-09T10:11:58.430Z,99942.97
2023-05-09T10:16:59.729Z,99943.00
2023-05-09T10:22:00.997Z,99936.41
2023-05-09T10:27:04.090Z,99927.66
2023-05-09T10:32:06.738Z,99921.19
2023-05-09T10:37:07.880Z,99916.94
2023-05-09T10:42:09.151Z,99909.16
2023-05-09T10:47:13.054Z,99895.19
2023-05-09T10:52:14.223Z,99889.31
2023-05-09T10:57:15.424Z,99879.94
2023-05-09T11:02:16.580Z,99875.47
2023-05-09T11:07:17.765Z,99871.66
2023-05-09T11:12:18.920Z,99869.81
2023-05-09T11:17:20.092Z,99857.63
2023-05-09T11:22:21.376Z,99846.13
2023-05-09T11:27:22.529Z,99843.06
2023-05-09T11:32:23.739Z,99836.53
2023-05-09T11:37:25.043Z,99831.94
2023-05-09T11:42:26.486Z,99810.50
2023-05-09T11:47:29.446Z,99804.84
2023-05-09T11:52:31.891Z,99797.47
2023-05-09T11:57:33.113Z,99789.88
2023-05-09T12:02:34.946Z,99785.06
2023-05-09T12:07:36.553Z,99775.22
2023-05-09T12:12:37.846Z,99762.59
2023-05-09T12:17:39.020Z,99735.00
2023-05-09T12:22:40.237Z,99749.06
2023-05-09T12:27:41.505Z,99746.03
2023-05-09T12:32:43.579Z,99740.03
2023-05-09T12:37:44.891Z,99738.53
2023-05-09T12:42:46.595Z,99730.88
2023-05-09T12:47:48.397Z,99725.03
2023-05-09T12:53:01.849Z,99715.84
2023-05-09T12:58:04.297Z,99720.16
2023-05-09T13:03:05.965Z,99711.38
2023-05-09T13:08:07.196Z,99704.88
2023-05-09T13:13:09.760Z,99689.53
2023-05-09T13:18:11.104Z,99686.84
2023-05-09T13:23:12.294Z,99673.50
2023-05-09T13:28:13.543Z,99662.78
2023-05-09T13:33:25.054Z,99657.41
2023-05-09T13:38:30.713Z,99643.63
2023-05-09T13:43:31.888Z,99646.69
2023-05-09T13:48:33.094Z,99647.84
2023-05-09T13:53:34.706Z,99639.84
2023-05-09T13:58:36.859Z,99633.72
2023-05-09T14:03:38.408Z,99619.97
2023-05-09T14:08:39.751Z,99618.06
2023-05-09T14:13:40.980Z,99617.25
2023-05-09T14:18:42.356Z,99602.38
2023-05-09T14:23:43.531Z,99601.19
2023-05-09T14:28:44.805Z,99602.34
2023-05-09T14:33:46.037Z,99596.84
2023-05-09T14:38:47.216Z,99603.66
2023-05-09T14:43:48.977Z,99610.31
2023-05-09T14:48:51.350Z,99615.09
2023-05-09T14:53:53.329Z,99622.81
2023-05-09T14:58:54.520Z,99618.38
2023-05-09T15:03:55.755Z,99618.56
2023-05-09T15:08:56.939Z,99625.94
2023-05-09T15:13:58.256Z,99625.16
2023-05-09T15:18:59.702Z,99626.28
2023-05-09T15:24:00.978Z,99624.78
2023-05-09T15:29:02.453Z,99604.72
2023-05-09T15:34:03.777Z,99605.47
2023-05-09T15:39:05.088Z,99611.34
2023-05-09T15:44:07.235Z,99607.72
2023-05-09T15:49:08.406Z,99606.13
2023-05-09T15:54:09.593Z,99599.00
2023-05-09T15:59:10.862Z,99595.44
2023-05-09T16:04:13.813Z,99592.91
2023-05-09T16:09:15.335Z,99592.91
2023-05-09T16:14:16.595Z,99576.47
2023-05-09T16:19:17.856Z,99585.16
2023-05-09T16:24:19.090Z,99586.91
2023-05-09T16:29:20.378Z,99588.44
2023-05-09T16:34:21.626Z,99583.13
2023-05-09T16:39:23.784Z,99580.06
2023-05-09T16:44:24.990Z,99574.47
2023-05-09T16:49:26.134Z,99567.41
2023-05-09T16:54:27.498Z,99565.03
2023-05-09T16:59:28.694Z,99564.56
2023-05-09T17:04:29.952Z,99562.78
2023-05-09T17:09:31.139Z,99566.31
2023-05-09T17:14:32.391Z,99556.81
2023-05-09T17:19:34.618Z,99554.47
2023-05-09T17:24:36.012Z,99549.09
2023-05-09T17:29:37.231Z,99553.50
2023-05-09T17:34:38.946Z,99547.22
2023-05-09T17:39:42.086Z,99543.44
2023-05-09T17:44:44.395Z,99545.69
2023-05-09T17:49:45.888Z,99536.81
2023-05-09T17:54:48.181Z,99528.09
2023-05-09T17:59:49.653Z,99519.59
2023-05-09T18:04:50.840Z,99528.63
2023-05-09T18:09:52.170Z,99514.09
2023-05-09T18:14:53.530Z,99510.63
2023-05-09T18:19:54.712Z,99507.78
2023-05-09T18:24:56.035Z,99509.88
2023-05-09T18:29:57.187Z,99510.34
2023-05-09T18:34:58.361Z,99512.84
2023-05-09T18:39:59.522Z,99512.34
2023-05-09T18:45:00.995Z,99505.31
2023-05-09T18:50:02.812Z,99504.47
2023-05-09T18:55:05.763Z,99509.06
2023-05-09T19:00:07.084Z,99511.53
2023-05-09T19:05:08.485Z,99502.28
2023-05-09T19:10:09.694Z,99504.13
2023-05-09T19:15:11.149Z,99513.94
2023-05-09T19:20:12.514Z,99514.19
2023-05-09T19:25:13.747Z,99508.91
2023-05-09T19:30:15.420Z,99514.91
2023-05-09T19:35:16.916Z,99526.84
2023-05-09T19:40:18.488Z,99532.31
2023-05-09T19:45:19.781Z,99536.09
2023-05-09T19:50:20.975Z,99542.19
2023-05-09T19:55:22.176Z,99536.97
2023-05-09T20:00:23.437Z,99537.63
2023-05-09T20:05:24.718Z,99535.63
2023-05-09T20:10:26.289Z,99551.66
2023-05-09T20:15:27.812Z,99540.19
2023-05-09T20:20:29.144Z,99537.75
2023-05-09T20:25:30.352Z,99540.59
2023-05-09T20:30:31.496Z,99536.22
2023-05-09T20:35:32.747Z,99536.94
2023-05-09T20:40:33.923Z,99539.47
2023-05-09T20:45:37.405Z,99541.16
2023-05-09T20:50:38.639Z,99539.59
2023-05-09T20:55:39.802Z,99544.00
2023-05-09T21:00:41.271Z,99537.56
2023-05-09T21:05:42.592Z,99537.69
2023-05-09T21:10:43.729Z,99531.63
2023-05-09T21:15:46.673Z,99537.75
2023-05-09T21:20:47.834Z,99532.59
2023-05-09T21:25:49.049Z,99532.91
2023-05-09T21:30:50.772Z,99538.72
2023-05-09T21:35:52.004Z,99541.09
2023-05-09T21:40:53.297Z,99534.47
2023-05-09T21:45:54.556Z,99541.31
2023-05-09T21:50:55.850Z,99531.88
2023-05-09T21:55:57.117Z,99529.88
2023-05-09T22:00:58.333Z,99532.50
2023-05-09T22:05:59.502Z,99529.31
2023-05-09T22:11:00.732Z,99529.44
2023-05-09T22:16:01.975Z,99531.75
2023-05-09T22:21:03.311Z,99530.75
2023-05-09T22:26:04.540Z,99533.56
2023-05-09T22:31:05.723Z,99531.88
2023-05-09T22:36:07.311Z,99527.03
2023-05-09T22:41:08.459Z,99534.81
2023-05-09T22:46:10.292Z,99533.28
2023-05-09T22:51:11.606Z,99523.84
2023-05-09T22:56:12.993Z,99526.47
2023-05-09T23:01:14.269Z,99529.88
2023-05-09T23:06:15.659Z,99529.13
2023-05-09T23:11:16.879Z,99524.94
2023-05-09T23:16:18.280Z,99535.16
2023-05-09T23:21:19.554Z,99524.59
2023-05-09T23:26:21.163Z,99530.31
2023-05-09T23:31:22.355Z,99526.47
2023-05-09T23:36:23.664Z,99519.03
2023-05-09T23:41:24.877Z,99530.00
2023-05-09T23:46:26.107Z,99529.56
2023-05-09T23:51:27.310Z,99527.03
2023-05-09T23:56:28.655Z,99528.00
